sensor_id;sensor_type;location;lat;lon;timestamp;P1;durP1;ratioP1;P2;durP2;ratioP2
7645;SDS011;3864;48.180;14.178;2023-03-02T00:01:29;28.33;;;12.88;;
7645;SDS011;3864;48.180;14.178;2023-03-02T00:03:57;29.10;;;14.57;;
7645;SDS011;3864;48.180;14.178;2023-03-02T00:06:25;28.92;;;14.18;;
7645;SDS011;3864;48.180;14.178;2023-03-02T00:08:52;28.27;;;14.15;;
7645;SDS011;3864;48.180;14.178;2023-03-02T00:11:19;25.60;;;13.38;;
7645;SDS011;3864;48.180;14.178;2023-03-02T00:13:47;24.75;;;13.23;;
7645;SDS011;3864;48.180;14.178;2023-03-02T00:16:14;25.95;;;13.43;;
7645;SDS011;3864;48.180;14.178;2023-03-02T00:18:41;26.75;;;13.63;;
7645;SDS011;3864;48.180;14.178;2023-03-02T00:21:07;23.85;;;12.50;;
7645;SDS011;3864;48.180;14.178;2023-03-02T00:23:35;25.98;;;13.48;;
7645;SDS011;3864;48.180;14.178;2023-03-02T00:26:03;26.33;;;14.43;;
7645;SDS011;3864;48.180;14.178;2023-03-02T00:28:29;27.83;;;13.18;;
7645;SDS011;3864;48.180;14.178;2023-03-02T00:30:58;24.08;;;12.57;;
7645;SDS011;3864;48.180;14.178;2023-03-02T00:33:25;28.42;;;14.13;;
7645;SDS011;3864;48.180;14.178;2023-03-02T00:35:51;29.42;;;13.90;;
7645;SDS011;3864;48.180;14.178;2023-03-02T00:38:18;25.88;;;13.57;;
7645;SDS011;3864;48.180;14.178;2023-03-02T00:40:45;27.02;;;13.07;;
7645;SDS011;3864;48.180;14.178;2023-03-02T00:43:13;25.70;;;14.60;;
7645;SDS011;3864;48.180;14.178;2023-03-02T00:45:40;29.65;;;15.00;;
7645;SDS011;3864;48.180;14.178;2023-03-02T00:48:08;29.55;;;15.38;;
7645;SDS011;3864;48.180;14.178;2023-03-02T00:50:35;30.10;;;14.98;;
7645;SDS011;3864;48.180;14.178;2023-03-02T00:53:05;27.35;;;13.60;;
7645;SDS011;3864;48.180;14.178;2023-03-02T00:55:32;26.42;;;13.05;;
7645;SDS011;3864;48.180;14.178;2023-03-02T00:57:59;29.73;;;13.98;;
7645;SDS011;3864;48.180;14.178;2023-03-02T01:00:25;31.45;;;15.48;;
7645;SDS011;3864;48.180;14.178;2023-03-02T01:02:53;30.05;;;14.85;;
7645;SDS011;3864;48.180;14.178;2023-03-02T01:05:22;30.70;;;13.93;;
7645;SDS011;3864;48.180;14.178;2023-03-02T01:07:49;30.88;;;14.52;;
7645;SDS011;3864;48.180;14.178;2023-03-02T01:10:15;29.20;;;14.57;;
7645;SDS011;3864;48.180;14.178;2023-03-02T01:12:42;28.17;;;14.88;;
7645;SDS011;3864;48.180;14.178;2023-03-02T01:15:09;31.83;;;14.70;;
7645;SDS011;3864;48.180;14.178;2023-03-02T01:17:36;30.10;;;15.38;;
7645;SDS011;3864;48.180;14.178;2023-03-02T01:20:04;31.30;;;15.63;;
7645;SDS011;3864;48.180;14.178;2023-03-02T01:22:34;30.38;;;14.52;;
7645;SDS011;3864;48.180;14.178;2023-03-02T01:25:01;33.03;;;14.85;;
7645;SDS011;3864;48.180;14.178;2023-03-02T01:29:55;28.83;;;14.15;;
7645;SDS011;3864;48.180;14.178;2023-03-02T01:32:22;31.15;;;14.50;;
7645;SDS011;3864;48.180;14.178;2023-03-02T01:34:49;28.70;;;16.50;;
7645;SDS011;3864;48.180;14.178;2023-03-02T01:37:15;28.65;;;14.07;;
7645;SDS011;3864;48.180;14.178;2023-03-02T01:39:44;30.30;;;15.35;;
7645;SDS011;3864;48.180;14.178;2023-03-02T01:42:11;32.97;;;16.33;;
7645;SDS011;3864;48.180;14.178;2023-03-02T01:44:39;32.08;;;14.40;;
7645;SDS011;3864;48.180;14.178;2023-03-02T01:47:09;29.42;;;16.05;;
7645;SDS011;3864;48.180;14.178;2023-03-02T01:49:38;31.85;;;14.90;;
7645;SDS011;3864;48.180;14.178;2023-03-02T01:52:07;30.75;;;15.05;;
7645;SDS011;3864;48.180;14.178;2023-03-02T01:54:34;31.27;;;14.95;;
7645;SDS011;3864;48.180;14.178;2023-03-02T01:57:04;32.85;;;15.07;;
7645;SDS011;3864;48.180;14.178;2023-03-02T01:59:31;35.22;;;17.05;;
7645;SDS011;3864;48.180;14.178;2023-03-02T02:01:59;32.78;;;16.17;;
7645;SDS011;3864;48.180;14.178;2023-03-02T02:04:27;26.23;;;13.48;;
7645;SDS011;3864;48.180;14.178;2023-03-02T02:06:55;33.47;;;16.58;;
7645;SDS011;3864;48.180;14.178;2023-03-02T02:09:24;34.95;;;15.55;;
7645;SDS011;3864;48.180;14.178;2023-03-02T02:11:52;34.40;;;16.85;;
7645;SDS011;3864;48.180;14.178;2023-03-02T02:14:20;35.35;;;17.60;;
7645;SDS011;3864;48.180;14.178;2023-03-02T02:16:48;34.13;;;16.65;;
7645;SDS011;3864;48.180;14.178;2023-03-02T02:19:17;32.75;;;16.92;;
7645;SDS011;3864;48.180;14.178;2023-03-02T02:21:50;37.28;;;16.67;;
7645;SDS011;3864;48.180;14.178;2023-03-02T02:24:18;34.63;;;17.25;;
7645;SDS011;3864;48.180;14.178;2023-03-02T02:26:49;36.67;;;16.00;;
7645;SDS011;3864;48.180;14.178;2023-03-02T02:29:17;33.55;;;16.90;;
7645;SDS011;3864;48.180;14.178;2023-03-02T02:31:47;36.00;;;17.35;;
7645;SDS011;3864;48.180;14.178;2023-03-02T02:34:16;31.17;;;17.15;;
7645;SDS011;3864;48.180;14.178;2023-03-02T02:36:47;36.10;;;16.33;;
7645;SDS011;3864;48.180;14.178;2023-03-02T02:39:14;33.30;;;16.92;;
7645;SDS011;3864;48.180;14.178;2023-03-02T02:41:46;38.47;;;18.73;;
7645;SDS011;3864;48.180;14.178;2023-03-02T02:44:15;39.47;;;17.65;;
7645;SDS011;3864;48.180;14.178;2023-03-02T02:46:43;35.13;;;17.83;;
7645;SDS011;3864;48.180;14.178;2023-03-02T02:49:13;39.10;;;17.85;;
7645;SDS011;3864;48.180;14.178;2023-03-02T02:51:44;39.53;;;19.33;;
7645;SDS011;3864;48.180;14.178;2023-03-02T02:54:10;35.78;;;18.95;;
7645;SDS011;3864;48.180;14.178;2023-03-02T02:56:39;36.97;;;18.30;;
7645;SDS011;3864;48.180;14.178;2023-03-02T02:59:10;35.97;;;18.30;;
7645;SDS011;3864;48.180;14.178;2023-03-02T03:01:40;36.13;;;17.85;;
7645;SDS011;3864;48.180;14.178;2023-03-02T03:04:09;40.95;;;19.30;;
7645;SDS011;3864;48.180;14.178;2023-03-02T03:06:39;40.25;;;19.02;;
7645;SDS011;3864;48.180;14.178;2023-03-02T03:09:14;38.45;;;19.45;;
7645;SDS011;3864;48.180;14.178;2023-03-02T03:11:42;43.72;;;20.05;;
7645;SDS011;3864;48.180;14.178;2023-03-02T03:14:11;36.28;;;18.70;;
7645;SDS011;3864;48.180;14.178;2023-03-02T03:16:41;39.35;;;19.83;;
7645;SDS011;3864;48.180;14.178;2023-03-02T03:19:10;40.10;;;19.45;;
7645;SDS011;3864;48.180;14.178;2023-03-02T03:21:38;43.13;;;19.95;;
7645;SDS011;3864;48.180;14.178;2023-03-02T03:24:05;42.58;;;19.98;;
7645;SDS011;3864;48.180;14.178;2023-03-02T03:26:32;42.17;;;20.10;;
7645;SDS011;3864;48.180;14.178;2023-03-02T03:28:59;43.15;;;21.08;;
7645;SDS011;3864;48.180;14.178;2023-03-02T03:33:55;48.60;;;19.58;;
7645;SDS011;3864;48.180;14.178;2023-03-02T03:36:24;40.22;;;20.48;;
7645;SDS011;3864;48.180;14.178;2023-03-02T03:38:51;46.60;;;20.17;;
7645;SDS011;3864;48.180;14.178;2023-03-02T03:41:18;46.03;;;21.27;;
7645;SDS011;3864;48.180;14.178;2023-03-02T03:43:45;48.47;;;21.90;;
7645;SDS011;3864;48.180;14.178;2023-03-02T03:46:12;44.25;;;22.58;;
7645;SDS011;3864;48.180;14.178;2023-03-02T03:48:40;43.00;;;20.77;;
7645;SDS011;3864;48.180;14.178;2023-03-02T03:51:09;44.75;;;20.92;;
7645;SDS011;3864;48.180;14.178;2023-03-02T03:53:36;46.03;;;22.60;;
7645;SDS011;3864;48.180;14.178;2023-03-02T03:56:03;44.17;;;20.88;;
7645;SDS011;3864;48.180;14.178;2023-03-02T04:00:57;40.80;;;19.33;;
7645;SDS011;3864;48.180;14.178;2023-03-02T04:03:25;44.10;;;21.38;;
7645;SDS011;3864;48.180;14.178;2023-03-02T04:05:52;42.08;;;20.25;;
7645;SDS011;3864;48.180;14.178;2023-03-02T04:08:21;46.40;;;22.63;;
7645;SDS011;3864;48.180;14.178;2023-03-02T04:10:47;44.15;;;21.60;;
7645;SDS011;3864;48.180;14.178;2023-03-02T04:13:14;43.35;;;22.02;;
7645;SDS011;3864;48.180;14.178;2023-03-02T04:15:41;44.97;;;21.20;;
7645;SDS011;3864;48.180;14.178;2023-03-02T04:18:08;42.97;;;21.45;;
7645;SDS011;3864;48.180;14.178;2023-03-02T04:20:35;43.72;;;21.02;;
7645;SDS011;3864;48.180;14.178;2023-03-02T04:23:02;42.85;;;21.60;;
7645;SDS011;3864;48.180;14.178;2023-03-02T04:25:30;44.65;;;21.58;;
7645;SDS011;3864;48.180;14.178;2023-03-02T04:27:57;46.95;;;22.63;;
7645;SDS011;3864;48.180;14.178;2023-03-02T04:30:24;47.33;;;22.75;;
7645;SDS011;3864;48.180;14.178;2023-03-02T04:32:51;42.28;;;21.70;;
7645;SDS011;3864;48.180;14.178;2023-03-02T04:37:45;38.50;;;19.17;;
7645;SDS011;3864;48.180;14.178;2023-03-02T04:40:12;45.63;;;22.85;;
7645;SDS011;3864;48.180;14.178;2023-03-02T04:42:41;43.13;;;22.05;;
7645;SDS011;3864;48.180;14.178;2023-03-02T04:45:09;44.35;;;21.70;;
7645;SDS011;3864;48.180;14.178;2023-03-02T04:47:36;44.65;;;23.17;;
7645;SDS011;3864;48.180;14.178;2023-03-02T04:50:03;43.47;;;20.02;;
7645;SDS011;3864;48.180;14.178;2023-03-02T04:52:30;45.83;;;22.15;;
7645;SDS011;3864;48.180;14.178;2023-03-02T04:54:56;44.65;;;22.63;;
7645;SDS011;3864;48.180;14.178;2023-03-02T04:57:24;44.83;;;20.90;;
7645;SDS011;3864;48.180;14.178;2023-03-02T04:59:52;48.15;;;22.00;;
7645;SDS011;3864;48.180;14.178;2023-03-02T05:02:19;42.92;;;21.10;;
7645;SDS011;3864;48.180;14.178;2023-03-02T05:04:46;44.88;;;21.65;;
7645;SDS011;3864;48.180;14.178;2023-03-02T05:07:13;44.45;;;21.60;;
7645;SDS011;3864;48.180;14.178;2023-03-02T05:09:40;42.03;;;21.60;;
7645;SDS011;3864;48.180;14.178;2023-03-02T05:12:07;49.22;;;23.10;;
7645;SDS011;3864;48.180;14.178;2023-03-02T05:14:33;46.78;;;22.52;;
7645;SDS011;3864;48.180;14.178;2023-03-02T05:17:02;40.95;;;20.80;;
7645;SDS011;3864;48.180;14.178;2023-03-02T05:19:29;42.35;;;21.35;;
7645;SDS011;3864;48.180;14.178;2023-03-02T05:21:56;44.78;;;21.02;;
7645;SDS011;3864;48.180;14.178;2023-03-02T05:24:23;42.63;;;21.23;;
7645;SDS011;3864;48.180;14.178;2023-03-02T05:26:50;50.33;;;22.83;;
7645;SDS011;3864;48.180;14.178;2023-03-02T05:29:17;45.00;;;21.33;;
7645;SDS011;3864;48.180;14.178;2023-03-02T05:31:44;46.08;;;23.83;;
7645;SDS011;3864;48.180;14.178;2023-03-02T05:34:14;47.70;;;22.75;;
7645;SDS011;3864;48.180;14.178;2023-03-02T05:36:41;45.08;;;21.85;;
7645;SDS011;3864;48.180;14.178;2023-03-02T05:39:09;45.58;;;21.58;;
7645;SDS011;3864;48.180;14.178;2023-03-02T05:41:36;45.05;;;21.30;;
7645;SDS011;3864;48.180;14.178;2023-03-02T05:44:02;44.75;;;22.42;;
7645;SDS011;3864;48.180;14.178;2023-03-02T05:48:56;70.75;;;29.55;;
7645;SDS011;3864;48.180;14.178;2023-03-02T05:51:25;54.92;;;26.73;;
7645;SDS011;3864;48.180;14.178;2023-03-02T05:53:53;51.42;;;24.05;;
7645;SDS011;3864;48.180;14.178;2023-03-02T05:56:20;51.92;;;24.23;;
7645;SDS011;3864;48.180;14.178;2023-03-02T05:58:47;47.35;;;22.33;;
7645;SDS011;3864;48.180;14.178;2023-03-02T06:01:13;50.05;;;23.42;;
7645;SDS011;3864;48.180;14.178;2023-03-02T06:03:40;53.63;;;23.77;;
7645;SDS011;3864;48.180;14.178;2023-03-02T06:06:07;49.15;;;23.55;;
7645;SDS011;3864;48.180;14.178;2023-03-02T06:08:39;39.95;;;20.98;;
7645;SDS011;3864;48.180;14.178;2023-03-02T06:11:06;47.15;;;23.58;;
7645;SDS011;3864;48.180;14.178;2023-03-02T06:16:00;45.40;;;22.05;;
7645;SDS011;3864;48.180;14.178;2023-03-02T06:18:27;51.72;;;24.30;;
7645;SDS011;3864;48.180;14.178;2023-03-02T06:20:54;51.72;;;23.80;;
7645;SDS011;3864;48.180;14.178;2023-03-02T06:23:21;43.55;;;19.67;;
7645;SDS011;3864;48.180;14.178;2023-03-02T06:25:49;46.13;;;22.52;;
7645;SDS011;3864;48.180;14.178;2023-03-02T06:28:17;48.92;;;22.38;;
7645;SDS011;3864;48.180;14.178;2023-03-02T06:30:44;45.30;;;21.05;;
7645;SDS011;3864;48.180;14.178;2023-03-02T06:33:12;48.28;;;22.63;;
7645;SDS011;3864;48.180;14.178;2023-03-02T06:35:39;47.55;;;21.17;;
7645;SDS011;3864;48.180;14.178;2023-03-02T06:38:06;55.40;;;23.95;;
7645;SDS011;3864;48.180;14.178;2023-03-02T06:40:33;70.88;;;26.05;;
7645;SDS011;3864;48.180;14.178;2023-03-02T06:43:01;64.45;;;26.15;;
7645;SDS011;3864;48.180;14.178;2023-03-02T06:45:28;75.07;;;26.98;;
7645;SDS011;3864;48.180;14.178;2023-03-02T06:47:57;65.15;;;25.00;;
7645;SDS011;3864;48.180;14.178;2023-03-02T06:50:25;62.03;;;25.02;;
7645;SDS011;3864;48.180;14.178;2023-03-02T06:55:19;59.50;;;23.75;;
7645;SDS011;3864;48.180;14.178;2023-03-02T06:57:45;57.75;;;24.42;;
7645;SDS011;3864;48.180;14.178;2023-03-02T07:00:15;57.60;;;23.67;;
7645;SDS011;3864;48.180;14.178;2023-03-02T07:02:48;75.65;;;25.27;;
7645;SDS011;3864;48.180;14.178;2023-03-02T07:05:16;59.20;;;23.83;;
7645;SDS011;3864;48.180;14.178;2023-03-02T07:07:42;67.75;;;25.88;;
7645;SDS011;3864;48.180;14.178;2023-03-02T07:10:10;57.15;;;25.55;;
7645;SDS011;3864;48.180;14.178;2023-03-02T07:12:37;58.40;;;23.83;;
7645;SDS011;3864;48.180;14.178;2023-03-02T07:15:04;58.63;;;23.08;;
7645;SDS011;3864;48.180;14.178;2023-03-02T07:17:38;55.00;;;23.58;;
7645;SDS011;3864;48.180;14.178;2023-03-02T07:20:05;72.40;;;27.73;;
7645;SDS011;3864;48.180;14.178;2023-03-02T07:22:32;55.45;;;23.52;;
7645;SDS011;3864;48.180;14.178;2023-03-02T07:24:59;63.53;;;24.55;;
7645;SDS011;3864;48.180;14.178;2023-03-02T07:29:56;50.20;;;21.02;;
7645;SDS011;3864;48.180;14.178;2023-03-02T07:32:28;54.42;;;22.30;;
7645;SDS011;3864;48.180;14.178;2023-03-02T07:34:56;49.65;;;22.17;;
7645;SDS011;3864;48.180;14.178;2023-03-02T07:37:24;59.25;;;22.98;;
7645;SDS011;3864;48.180;14.178;2023-03-02T07:39:51;60.03;;;24.05;;
7645;SDS011;3864;48.180;14.178;2023-03-02T07:42:18;53.15;;;20.75;;
7645;SDS011;3864;48.180;14.178;2023-03-02T07:44:45;50.17;;;22.00;;
7645;SDS011;3864;48.180;14.178;2023-03-02T07:47:12;46.95;;;20.92;;
7645;SDS011;3864;48.180;14.178;2023-03-02T07:49:39;57.70;;;22.58;;
7645;SDS011;3864;48.180;14.178;2023-03-02T07:52:09;54.00;;;21.80;;
7645;SDS011;3864;48.180;14.178;2023-03-02T07:54:36;61.80;;;23.55;;
7645;SDS011;3864;48.180;14.178;2023-03-02T07:57:03;63.97;;;25.38;;
7645;SDS011;3864;48.180;14.178;2023-03-02T07:59:35;60.70;;;22.77;;
7645;SDS011;3864;48.180;14.178;2023-03-02T08:02:04;63.80;;;22.42;;
7645;SDS011;3864;48.180;14.178;2023-03-02T08:04:33;65.75;;;22.88;;
7645;SDS011;3864;48.180;14.178;2023-03-02T08:07:03;55.58;;;22.42;;
7645;SDS011;3864;48.180;14.178;2023-03-02T08:09:32;53.17;;;20.90;;
7645;SDS011;3864;48.180;14.178;2023-03-02T08:11:59;52.45;;;22.27;;
7645;SDS011;3864;48.180;14.178;2023-03-02T08:14:25;60.78;;;22.63;;
7645;SDS011;3864;48.180;14.178;2023-03-02T08:16:52;57.08;;;22.90;;
7645;SDS011;3864;48.180;14.178;2023-03-02T08:19:19;59.72;;;22.55;;
7645;SDS011;3864;48.180;14.178;2023-03-02T08:21:46;58.33;;;23.45;;
7645;SDS011;3864;48.180;14.178;2023-03-02T08:24:13;60.28;;;24.00;;
7645;SDS011;3864;48.180;14.178;2023-03-02T08:26:41;63.83;;;22.00;;
7645;SDS011;3864;48.180;14.178;2023-03-02T08:29:08;71.57;;;24.23;;
7645;SDS011;3864;48.180;14.178;2023-03-02T08:31:35;65.25;;;23.48;;
7645;SDS011;3864;48.180;14.178;2023-03-02T08:34:02;51.83;;;21.52;;
7645;SDS011;3864;48.180;14.178;2023-03-02T08:36:29;50.10;;;21.52;;
7645;SDS011;3864;48.180;14.178;2023-03-02T08:38:56;55.83;;;21.10;;
7645;SDS011;3864;48.180;14.178;2023-03-02T08:41:23;50.30;;;20.20;;
7645;SDS011;3864;48.180;14.178;2023-03-02T08:43:52;55.38;;;21.13;;
7645;SDS011;3864;48.180;14.178;2023-03-02T08:46:20;54.58;;;21.00;;
7645;SDS011;3864;48.180;14.178;2023-03-02T08:48:47;61.08;;;20.73;;
7645;SDS011;3864;48.180;14.178;2023-03-02T08:51:16;53.10;;;20.42;;
7645;SDS011;3864;48.180;14.178;2023-03-02T08:53:44;47.72;;;19.10;;
7645;SDS011;3864;48.180;14.178;2023-03-02T08:56:15;50.33;;;20.20;;
7645;SDS011;3864;48.180;14.178;2023-03-02T08:58:42;44.75;;;20.30;;
7645;SDS011;3864;48.180;14.178;2023-03-02T09:03:37;35.83;;;17.92;;
7645;SDS011;3864;48.180;14.178;2023-03-02T09:06:04;32.40;;;17.42;;
7645;SDS011;3864;48.180;14.178;2023-03-02T09:08:31;30.73;;;15.90;;
7645;SDS011;3864;48.180;14.178;2023-03-02T09:10:58;29.83;;;16.48;;
7645;SDS011;3864;48.180;14.178;2023-03-02T09:13:25;28.50;;;16.70;;
7645;SDS011;3864;48.180;14.178;2023-03-02T09:15:51;29.52;;;16.58;;
7645;SDS011;3864;48.180;14.178;2023-03-02T09:18:18;30.20;;;16.42;;
7645;SDS011;3864;48.180;14.178;2023-03-02T09:20:49;29.33;;;15.05;;
7645;SDS011;3864;48.180;14.178;2023-03-02T09:23:16;30.70;;;16.63;;
7645;SDS011;3864;48.180;14.178;2023-03-02T09:25:43;35.20;;;16.58;;
7645;SDS011;3864;48.180;14.178;2023-03-02T09:28:11;30.45;;;16.58;;
7645;SDS011;3864;48.180;14.178;2023-03-02T09:30:38;29.55;;;16.25;;
7645;SDS011;3864;48.180;14.178;2023-03-02T09:33:05;29.00;;;15.85;;
7645;SDS011;3864;48.180;14.178;2023-03-02T09:35:32;29.67;;;15.65;;
7645;SDS011;3864;48.180;14.178;2023-03-02T09:38:00;32.67;;;16.60;;
7645;SDS011;3864;48.180;14.178;2023-03-02T09:40:28;32.60;;;16.02;;
7645;SDS011;3864;48.180;14.178;2023-03-02T09:43:00;30.30;;;17.13;;
7645;SDS011;3864;48.180;14.178;2023-03-02T09:45:36;27.40;;;15.10;;
7645;SDS011;3864;48.180;14.178;2023-03-02T09:48:10;32.05;;;16.90;;
7645;SDS011;3864;48.180;14.178;2023-03-02T09:50:41;29.65;;;16.33;;
7645;SDS011;3864;48.180;14.178;2023-03-02T09:55:56;28.73;;;15.38;;
7645;SDS011;3864;48.180;14.178;2023-03-02T09:58:24;26.15;;;15.43;;
7645;SDS011;3864;48.180;14.178;2023-03-02T10:00:54;28.40;;;15.15;;
7645;SDS011;3864;48.180;14.178;2023-03-02T10:03:24;30.08;;;16.08;;
7645;SDS011;3864;48.180;14.178;2023-03-02T10:05:53;26.80;;;15.50;;
7645;SDS011;3864;48.180;14.178;2023-03-02T10:08:21;34.05;;;16.02;;
7645;SDS011;3864;48.180;14.178;2023-03-02T10:10:51;28.20;;;14.43;;
7645;SDS011;3864;48.180;14.178;2023-03-02T10:13:22;25.02;;;13.75;;
7645;SDS011;3864;48.180;14.178;2023-03-02T10:15:55;26.77;;;14.55;;
7645;SDS011;3864;48.180;14.178;2023-03-02T10:18:27;29.83;;;15.18;;
7645;SDS011;3864;48.180;14.178;2023-03-02T10:20:57;27.30;;;14.27;;
7645;SDS011;3864;48.180;14.178;2023-03-02T10:23:29;22.80;;;13.70;;
7645;SDS011;3864;48.180;14.178;2023-03-02T10:25:56;24.15;;;13.43;;
7645;SDS011;3864;48.180;14.178;2023-03-02T10:28:29;27.92;;;13.93;;
7645;SDS011;3864;48.180;14.178;2023-03-02T10:30:59;28.77;;;14.52;;
7645;SDS011;3864;48.180;14.178;2023-03-02T10:33:31;24.67;;;13.05;;
7645;SDS011;3864;48.180;14.178;2023-03-02T10:36:00;25.30;;;13.93;;
7645;SDS011;3864;48.180;14.178;2023-03-02T10:38:30;24.40;;;14.30;;
7645;SDS011;3864;48.180;14.178;2023-03-02T10:40:58;22.15;;;13.07;;
7645;SDS011;3864;48.180;14.178;2023-03-02T10:43:28;22.80;;;12.43;;
7645;SDS011;3864;48.180;14.178;2023-03-02T10:46:00;23.15;;;13.15;;
7645;SDS011;3864;48.180;14.178;2023-03-02T10:48:27;22.92;;;13.02;;
7645;SDS011;3864;48.180;14.178;2023-03-02T10:53:21;17.05;;;11.07;;
7645;SDS011;3864;48.180;14.178;2023-03-02T10:58:20;23.27;;;12.43;;
7645;SDS011;3864;48.180;14.178;2023-03-02T11:00:56;20.25;;;12.93;;
7645;SDS011;3864;48.180;14.178;2023-03-02T11:03:25;20.00;;;10.82;;
7645;SDS011;3864;48.180;14.178;2023-03-02T11:05:53;19.40;;;10.45;;
7645;SDS011;3864;48.180;14.178;2023-03-02T11:08:21;20.30;;;10.02;;
7645;SDS011;3864;48.180;14.178;2023-03-02T11:10:50;20.48;;;11.05;;
7645;SDS011;3864;48.180;14.178;2023-03-02T11:13:18;14.90;;;9.27;;
7645;SDS011;3864;48.180;14.178;2023-03-02T11:15:48;15.40;;;9.20;;
7645;SDS011;3864;48.180;14.178;2023-03-02T11:18:18;17.63;;;9.30;;
7645;SDS011;3864;48.180;14.178;2023-03-02T11:23:19;17.83;;;10.05;;
7645;SDS011;3864;48.180;14.178;2023-03-02T11:25:50;18.38;;;9.77;;
7645;SDS011;3864;48.180;14.178;2023-03-02T11:28:21;17.95;;;10.45;;
7645;SDS011;3864;48.180;14.178;2023-03-02T11:30:52;17.48;;;9.35;;
7645;SDS011;3864;48.180;14.178;2023-03-02T11:33:23;16.23;;;10.20;;
7645;SDS011;3864;48.180;14.178;2023-03-02T11:35:51;17.73;;;10.15;;
7645;SDS011;3864;48.180;14.178;2023-03-02T11:38:23;16.90;;;9.27;;
7645;SDS011;3864;48.180;14.178;2023-03-02T11:40:52;17.42;;;9.20;;
7645;SDS011;3864;48.180;14.178;2023-03-02T11:43:20;16.63;;;9.18;;
7645;SDS011;3864;48.180;14.178;2023-03-02T11:48:16;15.82;;;9.15;;
7645;SDS011;3864;48.180;14.178;2023-03-02T11:50:45;14.48;;;8.52;;
7645;SDS011;3864;48.180;14.178;2023-03-02T11:53:15;15.02;;;8.75;;
7645;SDS011;3864;48.180;14.178;2023-03-02T11:55:45;13.65;;;8.20;;
7645;SDS011;3864;48.180;14.178;2023-03-02T11:58:15;15.18;;;9.70;;
7645;SDS011;3864;48.180;14.178;2023-03-02T12:00:42;13.27;;;9.10;;
7645;SDS011;3864;48.180;14.178;2023-03-02T12:03:18;13.20;;;9.32;;
7645;SDS011;3864;48.180;14.178;2023-03-02T12:05:46;15.70;;;9.23;;
7645;SDS011;3864;48.180;14.178;2023-03-02T12:08:31;14.98;;;10.50;;
7645;SDS011;3864;48.180;14.178;2023-03-02T12:11:00;17.23;;;10.70;;
7645;SDS011;3864;48.180;14.178;2023-03-02T12:13:29;17.80;;;9.77;;
7645;SDS011;3864;48.180;14.178;2023-03-02T12:15:56;17.17;;;10.55;;
7645;SDS011;3864;48.180;14.178;2023-03-02T12:18:27;16.25;;;9.70;;
7645;SDS011;3864;48.180;14.178;2023-03-02T12:20:58;21.67;;;10.73;;
7645;SDS011;3864;48.180;14.178;2023-03-02T12:23:25;22.25;;;10.80;;
7645;SDS011;3864;48.180;14.178;2023-03-02T12:26:03;16.85;;;10.20;;
7645;SDS011;3864;48.180;14.178;2023-03-02T12:28:31;20.15;;;11.07;;
7645;SDS011;3864;48.180;14.178;2023-03-02T12:31:06;16.98;;;10.23;;
7645;SDS011;3864;48.180;14.178;2023-03-02T12:33:37;20.23;;;12.15;;
7645;SDS011;3864;48.180;14.178;2023-03-02T12:36:13;16.77;;;10.50;;
7645;SDS011;3864;48.180;14.178;2023-03-02T12:38:40;15.57;;;10.65;;
7645;SDS011;3864;48.180;14.178;2023-03-02T12:41:26;18.15;;;10.48;;
7645;SDS011;3864;48.180;14.178;2023-03-02T12:44:01;17.30;;;10.32;;
7645;SDS011;3864;48.180;14.178;2023-03-02T12:46:32;18.83;;;10.52;;
7645;SDS011;3864;48.180;14.178;2023-03-02T12:49:01;20.13;;;11.00;;
7645;SDS011;3864;48.180;14.178;2023-03-02T12:51:28;18.70;;;10.35;;
7645;SDS011;3864;48.180;14.178;2023-03-02T12:54:03;15.82;;;10.40;;
7645;SDS011;3864;48.180;14.178;2023-03-02T12:56:32;18.17;;;10.48;;
7645;SDS011;3864;48.180;14.178;2023-03-02T12:58:59;18.17;;;11.27;;
7645;SDS011;3864;48.180;14.178;2023-03-02T13:01:28;17.55;;;10.65;;
7645;SDS011;3864;48.180;14.178;2023-03-02T13:03:55;19.90;;;10.52;;
7645;SDS011;3864;48.180;14.178;2023-03-02T13:06:25;16.73;;;10.23;;
7645;SDS011;3864;48.180;14.178;2023-03-02T13:08:53;16.05;;;8.70;;
7645;SDS011;3864;48.180;14.178;2023-03-02T13:11:22;14.45;;;9.20;;
7645;SDS011;3864;48.180;14.178;2023-03-02T13:13:56;14.13;;;9.38;;
7645;SDS011;3864;48.180;14.178;2023-03-02T13:16:27;16.70;;;8.63;;
7645;SDS011;3864;48.180;14.178;2023-03-02T13:18:56;14.57;;;9.18;;
7645;SDS011;3864;48.180;14.178;2023-03-02T13:21:27;17.52;;;9.27;;
7645;SDS011;3864;48.180;14.178;2023-03-02T13:23:57;15.00;;;8.07;;
7645;SDS011;3864;48.180;14.178;2023-03-02T13:26:25;13.57;;;9.20;;
7645;SDS011;3864;48.180;14.178;2023-03-02T13:29:03;13.05;;;8.63;;
7645;SDS011;3864;48.180;14.178;2023-03-02T13:31:31;12.52;;;8.35;;
7645;SDS011;3864;48.180;14.178;2023-03-02T13:33:59;14.50;;;9.52;;
7645;SDS011;3864;48.180;14.178;2023-03-02T13:36:26;13.68;;;8.48;;
7645;SDS011;3864;48.180;14.178;2023-03-02T13:38:55;14.57;;;8.93;;
7645;SDS011;3864;48.180;14.178;2023-03-02T13:41:23;17.00;;;9.13;;
7645;SDS011;3864;48.180;14.178;2023-03-02T13:43:50;14.65;;;8.52;;
7645;SDS011;3864;48.180;14.178;2023-03-02T13:48:53;15.85;;;8.82;;
7645;SDS011;3864;48.180;14.178;2023-03-02T13:51:20;15.93;;;9.65;;
7645;SDS011;3864;48.180;14.178;2023-03-02T13:53:49;15.93;;;9.32;;
7645;SDS011;3864;48.180;14.178;2023-03-02T13:56:17;16.60;;;9.82;;
7645;SDS011;3864;48.180;14.178;2023-03-02T13:58:44;12.52;;;8.43;;
7645;SDS011;3864;48.180;14.178;2023-03-02T14:01:11;14.63;;;9.70;;
7645;SDS011;3864;48.180;14.178;2023-03-02T14:03:38;15.20;;;8.38;;
7645;SDS011;3864;48.180;14.178;2023-03-02T14:06:08;14.35;;;9.00;;
7645;SDS011;3864;48.180;14.178;2023-03-02T14:08:35;17.27;;;8.90;;
7645;SDS011;3864;48.180;14.178;2023-03-02T14:11:02;16.92;;;8.82;;
7645;SDS011;3864;48.180;14.178;2023-03-02T14:13:29;14.52;;;8.63;;
7645;SDS011;3864;48.180;14.178;2023-03-02T14:15:58;16.90;;;8.98;;
7645;SDS011;3864;48.180;14.178;2023-03-02T14:20:51;14.75;;;9.52;;
7645;SDS011;3864;48.180;14.178;2023-03-02T14:25:47;14.63;;;8.73;;
7645;SDS011;3864;48.180;14.178;2023-03-02T14:28:15;14.45;;;8.88;;
7645;SDS011;3864;48.180;14.178;2023-03-02T14:30:44;14.73;;;9.07;;
7645;SDS011;3864;48.180;14.178;2023-03-02T14:33:12;13.82;;;9.10;;
7645;SDS011;3864;48.180;14.178;2023-03-02T14:35:39;17.80;;;9.55;;
7645;SDS011;3864;48.180;14.178;2023-03-02T14:38:07;16.48;;;10.10;;
7645;SDS011;3864;48.180;14.178;2023-03-02T14:40:35;13.73;;;9.38;;
7645;SDS011;3864;48.180;14.178;2023-03-02T14:43:04;17.88;;;10.18;;
7645;SDS011;3864;48.180;14.178;2023-03-02T14:45:30;15.18;;;10.55;;
7645;SDS011;3864;48.180;14.178;2023-03-02T14:47:57;16.92;;;10.00;;
7645;SDS011;3864;48.180;14.178;2023-03-02T14:52:51;17.75;;;9.95;;
7645;SDS011;3864;48.180;14.178;2023-03-02T14:55:21;17.55;;;10.02;;
7645;SDS011;3864;48.180;14.178;2023-03-02T14:57:51;16.58;;;10.15;;
7645;SDS011;3864;48.180;14.178;2023-03-02T15:00:20;16.73;;;10.60;;
7645;SDS011;3864;48.180;14.178;2023-03-02T15:02:47;16.85;;;10.25;;
7645;SDS011;3864;48.180;14.178;2023-03-02T15:05:14;16.52;;;9.82;;
7645;SDS011;3864;48.180;14.178;2023-03-02T15:07:41;18.90;;;10.13;;
7645;SDS011;3864;48.180;14.178;2023-03-02T15:10:10;17.95;;;11.18;;
7645;SDS011;3864;48.180;14.178;2023-03-02T15:12:38;16.25;;;9.48;;
7645;SDS011;3864;48.180;14.178;2023-03-02T15:17:33;18.23;;;11.10;;
7645;SDS011;3864;48.180;14.178;2023-03-02T15:20:00;16.85;;;9.88;;
7645;SDS011;3864;48.180;14.178;2023-03-02T15:24:53;18.08;;;11.00;;
7645;SDS011;3864;48.180;14.178;2023-03-02T15:27:20;19.60;;;11.00;;
7645;SDS011;3864;48.180;14.178;2023-03-02T15:29:48;16.25;;;10.35;;
7645;SDS011;3864;48.180;14.178;2023-03-02T15:32:15;18.85;;;11.13;;